createdAt,value
2024-04-21T00:00:11.157Z,7.72
2024-04-21T00:05:12.811Z,6.80
2024-04-21T00:10:14.513Z,6.93
2024-04-21T00:15:16.237Z,6.45
2024-04-21T00:20:18.261Z,6.85
2024-04-21T00:25:20.043Z,6.60
2024-04-21T00:30:21.714Z,7.05
2024-04-21T00:35:23.423Z,6.22
2024-04-21T00:40:25.271Z,6.85
2024-04-21T00:45:31.857Z,6.13
2024-04-21T00:50:39.661Z,6.20
2024-04-21T00:55:41.443Z,6.28
2024-04-21T01:00:43.383Z,6.57
2024-04-21T01:05:45.217Z,6.65
2024-04-21T01:10:46.958Z,6.07
2024-04-21T01:15:53.700Z,5.80
2024-04-21T01:20:55.473Z,4.82
2024-04-21T01:25:57.181Z,5.45
2024-04-21T01:30:59.050Z,5.25
2024-04-21T01:36:00.737Z,4.38
2024-04-21T01:41:02.488Z,3.47
2024-04-21T01:46:04.523Z,4.22
2024-04-21T01:51:06.259Z,5.07
2024-04-21T01:56:07.946Z,4.35
2024-04-21T02:01:09.754Z,4.40
2024-04-21T02:06:11.532Z,4.47
2024-04-21T02:11:13.252Z,4.10
2024-04-21T02:16:15.071Z,4.40
2024-04-21T02:21:16.750Z,4.30
2024-04-21T02:26:18.436Z,4.68
2024-04-21T02:31:20.184Z,4.40
2024-04-21T02:36:21.873Z,4.72
2024-04-21T02:41:23.587Z,4.72
2024-04-21T02:46:25.331Z,5.07
2024-04-21T02:51:27.427Z,5.18
2024-04-21T02:56:29.109Z,5.20
2024-04-21T03:01:30.894Z,4.90
2024-04-21T03:06:32.597Z,5.75
2024-04-21T03:11:34.292Z,5.45
2024-04-21T03:16:35.991Z,5.25
2024-04-21T03:21:37.959Z,6.13
2024-04-21T03:26:39.621Z,5.47
2024-04-21T03:31:41.304Z,5.50
2024-04-21T03:36:42.987Z,5.53
2024-04-21T03:41:45.588Z,7.03
2024-04-21T03:46:47.258Z,7.43
2024-04-21T03:51:49.002Z,9.25
2024-04-21T03:56:50.703Z,8.73
2024-04-21T04:01:52.391Z,9.82
2024-04-21T04:06:54.125Z,9.15
2024-04-21T04:11:55.873Z,9.05
2024-04-21T04:16:57.552Z,8.90
2024-04-21T04:21:59.244Z,8.70
2024-04-21T04:27:00.933Z,8.10
2024-04-21T04:32:02.613Z,7.93
2024-04-21T04:37:04.352Z,8.18
2024-04-21T04:42:06.658Z,8.10
2024-04-21T04:47:08.386Z,6.78
2024-04-21T04:52:11.972Z,6.50
2024-04-21T04:57:13.724Z,5.80
2024-04-21T05:02:15.417Z,6.00
2024-04-21T05:07:17.167Z,5.15
2024-04-21T05:12:19.724Z,4.75
2024-04-21T05:17:21.442Z,3.88
2024-04-21T05:22:23.162Z,3.63
2024-04-21T05:27:24.869Z,4.13
2024-04-21T05:32:26.653Z,2.80
2024-04-21T05:37:28.455Z,2.13
2024-04-21T05:42:30.145Z,2.30
2024-04-21T05:47:31.919Z,2.05
2024-04-21T05:52:33.827Z,2.20
2024-04-21T05:57:35.494Z,1.80
2024-04-21T06:02:37.188Z,1.60
2024-04-21T06:07:38.895Z,1.60
2024-04-21T06:12:40.619Z,1.50
2024-04-21T06:17:42.355Z,1.20
2024-04-21T06:22:44.066Z,1.30
2024-04-21T06:27:45.752Z,1.30
2024-04-21T06:32:47.567Z,1.42
2024-04-21T06:37:49.262Z,1.65
2024-04-21T06:42:50.958Z,1.63
2024-04-21T06:47:52.682Z,2.30
2024-04-21T06:52:54.428Z,1.80
2024-04-21T06:57:56.151Z,1.73
2024-04-21T07:02:57.910Z,1.85
2024-04-21T07:07:59.598Z,1.90
2024-04-21T07:13:01.368Z,1.98
2024-04-21T07:18:03.226Z,1.90
2024-04-21T07:23:04.968Z,1.75
2024-04-21T07:28:06.699Z,1.85
2024-04-21T07:33:08.408Z,1.60
2024-04-21T07:38:10.231Z,1.95
2024-04-21T07:43:13.269Z,1.73
2024-04-21T07:48:15.144Z,2.00
2024-04-21T07:53:16.849Z,2.33
2024-04-21T07:58:18.602Z,1.65
2024-04-21T08:03:20.342Z,1.73
2024-04-21T08:08:22.119Z,1.67
2024-04-21T08:13:23.876Z,2.22
2024-04-21T08:18:26.002Z,2.30
2024-04-21T08:23:30.077Z,2.40
2024-04-21T08:28:31.935Z,2.80
2024-04-21T08:33:33.675Z,2.30
2024-04-21T08:38:35.496Z,1.88
2024-04-21T08:43:37.720Z,2.50
2024-04-21T08:48:39.432Z,2.75
2024-04-21T08:53:41.106Z,2.35
2024-04-21T08:58:42.786Z,2.53
2024-04-21T09:03:44.475Z,2.25
2024-04-21T09:08:46.164Z,2.30
2024-04-21T09:13:47.870Z,2.25
2024-04-21T09:18:49.636Z,2.22
2024-04-21T09:23:51.347Z,2.75
2024-04-21T09:28:53.182Z,2.20
2024-04-21T09:33:54.954Z,2.45
2024-04-21T09:38:56.625Z,2.00
2024-04-21T09:43:58.289Z,2.30
2024-04-21T09:49:00.209Z,1.95
2024-04-21T09:54:01.977Z,1.70
2024-04-21T09:59:03.614Z,1.77
2024-04-21T10:04:05.402Z,2.33
2024-04-21T10:09:07.116Z,2.20
2024-04-21T10:14:08.828Z,1.98
2024-04-21T10:19:10.565Z,2.15
2024-04-21T10:24:13.201Z,2.15
2024-04-21T10:29:14.935Z,2.10
2024-04-21T10:34:16.663Z,1.88
2024-04-21T10:39:27.810Z,1.88
2024-04-21T10:44:29.482Z,1.75
2024-04-21T10:49:31.144Z,1.80
2024-04-21T10:54:32.842Z,2.58
2024-04-21T10:59:34.497Z,1.60
2024-04-21T11:04:37.383Z,1.70
2024-04-21T11:09:39.230Z,1.70
2024-04-21T11:14:40.901Z,1.88
2024-04-21T11:19:42.615Z,1.92
2024-04-21T11:24:45.348Z,1.60
2024-04-21T11:29:47.477Z,1.90
2024-04-21T11:34:49.366Z,7.63
2024-04-21T11:39:51.039Z,12.38
2024-04-21T11:44:53.504Z,4.07
2024-04-21T11:49:55.174Z,1.73
2024-04-21T11:54:56.902Z,2.08
2024-04-21T11:59:59.107Z,8.07
2024-04-21T12:05:01.692Z,2.40
2024-04-21T12:10:03.647Z,2.00
2024-04-21T12:15:05.671Z,1.20
2024-04-21T12:20:07.527Z,3.13
2024-04-21T12:25:09.201Z,2.25
2024-04-21T12:30:12.681Z,1.35
2024-04-21T12:35:17.143Z,1.70
2024-04-21T12:40:18.980Z,1.42
2024-04-21T12:45:20.718Z,1.40
2024-04-21T12:50:22.480Z,2.05
2024-04-21T12:55:24.174Z,1.10
2024-04-21T13:00:25.899Z,1.20
2024-04-21T13:05:27.591Z,1.60
2024-04-21T13:10:29.404Z,1.10
2024-04-21T13:15:31.145Z,1.20
2024-04-21T13:20:32.860Z,1.02
2024-04-21T13:25:34.605Z,1.65
2024-04-21T13:30:36.387Z,1.50
2024-04-21T13:35:38.048Z,1.67
2024-04-21T13:40:39.801Z,1.30
2024-04-21T13:45:41.505Z,1.92
2024-04-21T13:50:43.186Z,1.27
2024-04-21T13:55:45.158Z,1.30
2024-04-21T14:00:47.363Z,1.20
2024-04-21T14:05:49.118Z,1.20
2024-04-21T14:10:50.828Z,1.45
2024-04-21T14:15:52.540Z,1.10
2024-04-21T14:20:56.058Z,1.20
2024-04-21T14:25:57.825Z,1.38
2024-04-21T14:31:02.392Z,1.20
2024-04-21T14:36:04.369Z,1.23
2024-04-21T14:41:09.035Z,1.90
2024-04-21T14:46:10.743Z,1.33
2024-04-21T14:51:12.445Z,0.93
2024-04-21T14:56:15.428Z,0.93
2024-04-21T15:01:17.219Z,1.42
2024-04-21T15:06:19.466Z,1.50
2024-04-21T15:11:21.738Z,1.60
2024-04-21T15:16:23.540Z,1.40
2024-04-21T15:21:25.274Z,1.10
2024-04-21T15:26:26.957Z,1.10
2024-04-21T15:31:28.687Z,1.23
2024-04-21T15:36:30.359Z,2.15
2024-04-21T15:41:32.461Z,1.33
2024-04-21T15:46:34.233Z,1.20
2024-04-21T15:51:36.573Z,1.20
2024-04-21T15:56:38.262Z,1.42
2024-04-21T16:01:40.011Z,1.23
2024-04-21T16:06:41.766Z,1.70
2024-04-21T16:11:43.466Z,1.80
2024-04-21T16:16:45.195Z,2.10
2024-04-21T16:21:47.032Z,1.85
2024-04-21T16:26:48.826Z,1.75
2024-04-21T16:31:50.607Z,1.90
2024-04-21T16:36:52.445Z,2.17
2024-04-21T16:41:54.321Z,2.70
2024-04-21T16:46:56.514Z,3.20
2024-04-21T16:52:00.915Z,2.75
2024-04-21T17:02:12.640Z,3.08
2024-04-21T17:07:18.531Z,2.60
2024-04-21T17:12:22.803Z,2.88
2024-04-21T17:17:24.616Z,2.85
2024-04-21T17:22:26.466Z,2.65
2024-04-21T17:27:28.215Z,3.20
2024-04-21T17:32:31.308Z,5.63
2024-04-21T17:37:33.090Z,7.80
2024-04-21T17:42:34.781Z,3.28
2024-04-21T17:47:36.560Z,2.20
2024-04-21T17:52:38.367Z,1.85
2024-04-21T17:57:40.119Z,2.25
2024-04-21T18:02:41.857Z,2.95
2024-04-21T18:07:44.794Z,2.45
2024-04-21T18:12:46.506Z,2.80
2024-04-21T18:17:48.428Z,3.00
2024-04-21T18:22:50.144Z,4.18
2024-04-21T18:27:51.832Z,4.85
2024-04-21T18:32:53.562Z,5.22
2024-04-21T18:37:55.465Z,7.85
2024-04-21T18:42:57.375Z,14.82
2024-04-21T18:47:59.105Z,10.05
2024-04-21T18:53:00.838Z,9.27
2024-04-21T18:58:02.713Z,9.43
2024-04-21T19:03:05.009Z,9.10
2024-04-21T19:08:09.905Z,10.15
2024-04-21T19:13:11.720Z,9.80
2024-04-21T19:18:14.948Z,10.20
2024-04-21T19:23:17.550Z,10.38
2024-04-21T19:28:19.278Z,11.10
2024-04-21T19:33:21.928Z,12.43
2024-04-21T19:38:24.095Z,12.35
2024-04-21T19:43:25.806Z,11.65
2024-04-21T19:48:27.611Z,12.07
2024-04-21T19:53:29.326Z,10.95
2024-04-21T19:58:31.403Z,11.45
2024-04-21T20:03:33.161Z,12.68
2024-04-21T20:08:34.884Z,17.00
2024-04-21T20:13:36.992Z,11.45
2024-04-21T20:18:41.982Z,12.73
2024-04-21T20:23:43.899Z,12.80
2024-04-21T20:28:45.899Z,10.95
2024-04-21T20:33:47.795Z,12.32
2024-04-21T20:38:49.972Z,11.32
2024-04-21T20:43:52.045Z,11.63
2024-04-21T20:48:54.049Z,11.75
2024-04-21T20:53:55.751Z,11.38
2024-04-21T20:58:58.504Z,11.82
2024-04-21T21:04:00.369Z,12.55
2024-04-21T21:09:02.098Z,12.23
2024-04-21T21:14:05.199Z,13.07
2024-04-21T21:19:06.935Z,10.73
2024-04-21T21:24:11.652Z,10.88
2024-04-21T21:29:13.328Z,9.80
2024-04-21T21:34:15.000Z,8.98
2024-04-21T21:39:16.691Z,9.20
2024-04-21T21:44:18.459Z,8.68
2024-04-21T21:49:20.218Z,8.65
2024-04-21T21:54:21.900Z,8.10
2024-04-21T21:59:23.654Z,9.68
2024-04-21T22:04:25.614Z,7.80
2024-04-21T22:14:51.667Z,8.23
2024-04-21T22:19:53.427Z,11.20
2024-04-21T22:24:55.102Z,9.68
2024-04-21T22:29:56.778Z,8.60
2024-04-21T22:34:58.460Z,8.75
2024-04-21T22:40:00.163Z,9.52
2024-04-21T22:45:01.888Z,9.73
2024-04-21T22:50:03.633Z,11.02
2024-04-21T22:55:05.477Z,9.90
2024-04-21T23:00:07.740Z,9.55
2024-04-21T23:05:09.403Z,9.85
2024-04-21T23:10:11.129Z,9.27
2024-04-21T23:15:12.831Z,8.50
2024-04-21T23:20:14.560Z,9.27
2024-04-21T23:25:16.243Z,9.82
2024-04-21T23:30:17.955Z,9.38
2024-04-21T23:35:19.642Z,9.63
2024-04-21T23:40:21.409Z,8.40
2024-04-21T23:45:23.073Z,8.63
2024-04-21T23:50:24.780Z,10.23
2024-04-21T23:55:26.488Z,9.73
